Time;durP1;ratioP1;P1;durP2;ratioP2;P2;SDS_P1;SDS_P2;PMS_P1;PMS_P2;Temp;Humidity;BMP_temperature;BMP_pressure;BME280_temperature;BME280_humidity;BME280_pressure;Samples;Min_cycle;Max_cycle;Signal;HPM_P1;HPM_P2
2021/04/17 00:00:29;;;;;;;21.20;3.40;;;32.40;15.60;;;;;;5067332;28;20073;-62
2021/04/17 00:02:56;;;;;;;18.25;3.25;;;32.40;16.90;;;;;;5069681;28;20107;-64
2021/04/17 00:05:23;;;;;;;20.45;3.53;;;32.40;15.50;;;;;;5066594;28;20080;-61
2021/04/17 00:07:51;;;;;;;17.63;3.28;;;32.30;16.40;;;;;;5066321;28;20112;-62
2021/04/17 00:10:19;;;;;;;15.25;3.30;;;32.20;16.00;;;;;;5068169;28;20111;-63
2021/04/17 00:12:46;;;;;;;21.85;3.30;;;32.20;15.30;;;;;;5070968;28;20065;-62
2021/04/17 00:15:13;;;;;;;16.05;3.20;;;32.20;15.80;;;;;;5066277;28;20077;-63
2021/04/17 00:17:40;;;;;;;16.52;3.20;;;32.10;15.50;;;;;;5065501;28;20088;-63
2021/04/17 00:20:07;;;;;;;15.02;3.15;;;32.10;16.60;;;;;;5064445;28;20155;-62
2021/04/17 00:22:33;;;;;;;20.60;3.35;;;32.10;16.40;;;;;;5064878;28;20073;-60
2021/04/17 00:25:00;;;;;;;19.55;3.05;;;32.00;16.80;;;;;;5069797;28;20080;-61
2021/04/17 00:27:26;;;;;;;17.90;3.25;;;32.00;17.30;;;;;;5065217;28;20184;-59
2021/04/17 00:29:53;;;;;;;18.20;3.30;;;32.00;15.10;;;;;;5064128;28;20088;-60
2021/04/17 00:32:19;;;;;;;16.52;3.50;;;32.00;18.00;;;;;;5066010;28;20105;-59
2021/04/17 00:34:46;;;;;;;15.43;3.20;;;31.80;21.00;;;;;;5067864;28;20089;-60
2021/04/17 00:37:15;;;;;;;23.38;3.25;;;31.80;21.20;;;;;;5065750;28;20223;-60
2021/04/17 00:39:41;;;;;;;18.23;2.75;;;31.70;18.30;;;;;;5067893;28;20073;-59
2021/04/17 00:42:08;;;;;;;19.08;2.40;;;31.60;17.00;;;;;;5071237;28;20143;-57
2021/04/17 00:44:35;;;;;;;17.55;3.13;;;31.40;16.40;;;;;;5068464;28;20752;-58
2021/04/17 00:47:07;;;;;;;16.42;3.05;;;31.20;19.80;;;;;;5069085;28;20085;-61
2021/04/17 00:49:34;;;;;;;12.48;3.20;;;31.10;16.00;;;;;;5066964;28;20481;-58
2021/04/17 00:52:01;;;;;;;15.77;3.50;;;31.30;17.50;;;;;;5065233;28;20107;-61
2021/04/17 00:54:27;;;;;;;17.20;3.00;;;31.30;15.20;;;;;;5066403;28;20069;-61
2021/04/17 00:56:54;;;;;;;15.68;2.85;;;31.30;18.30;;;;;;5068152;28;20133;-59
2021/04/17 00:59:21;;;;;;;12.77;3.05;;;31.20;18.10;;;;;;5067550;28;20147;-59
2021/04/17 01:01:48;;;;;;;19.80;3.25;;;31.10;16.00;;;;;;5068779;28;20077;-58
2021/04/17 01:04:33;;;;;;;24.73;3.97;;;31.00;15.40;;;;;;5065614;28;20088;-58
2021/04/17 01:07:22;;;;;;;21.33;2.78;;;30.90;16.10;;;;;;5068243;28;20084;-62
2021/04/17 01:10:11;;;;;;;22.15;3.20;;;30.80;16.00;;;;;;5066194;28;20147;-61
2021/04/17 01:12:41;;;;;;;14.85;3.13;;;30.70;14.90;;;;;;5063320;28;20127;-62
2021/04/17 01:15:10;;;;;;;14.82;2.97;;;30.70;17.20;;;;;;5065838;28;20084;-60
2021/04/17 01:17:39;;;;;;;16.00;3.35;;;30.60;16.30;;;;;;5049018;28;20080;-60
2021/04/17 01:20:18;;;;;;;15.93;3.35;;;30.50;16.50;;;;;;5069247;28;20073;-62
2021/04/17 01:23:02;;;;;;;21.50;3.72;;;30.30;16.80;;;;;;5066478;28;20118;-59
2021/04/17 01:25:37;;;;;;;15.77;3.00;;;30.20;17.00;;;;;;5063982;28;20085;-61
2021/04/17 01:28:04;;;;;;;16.85;2.90;;;30.00;16.60;;;;;;5064108;28;20097;-59
2021/04/17 01:30:31;;;;;;;26.17;3.83;;;29.90;16.80;;;;;;5068778;28;20088;-61
2021/04/17 01:32:58;;;;;;;17.38;3.55;;;29.80;17.90;;;;;;5059423;28;20537;-63
2021/04/17 01:35:24;;;;;;;16.13;2.90;;;29.60;17.70;;;;;;5066010;28;20430;-63
2021/04/17 01:37:54;;;;;;;21.10;3.20;;;29.40;17.00;;;;;;5067253;28;20149;-62
2021/04/17 01:40:25;;;;;;;12.98;2.70;;;29.40;16.60;;;;;;5066048;28;20100;-61
2021/04/17 01:42:53;;;;;;;21.60;2.70;;;29.30;17.40;;;;;;5066753;28;20101;-58
2021/04/17 01:45:24;;;;;;;44.85;10.73;;;29.10;16.90;;;;;;5068400;28;20085;-61
2021/04/17 01:47:57;;;;;;;27.63;8.07;;;29.00;16.80;;;;;;5067666;28;20085;-62
2021/04/17 01:50:30;;;;;;;24.63;3.70;;;28.90;17.30;;;;;;5068156;28;20079;-62
2021/04/17 01:52:58;;;;;;;18.20;4.18;;;28.70;17.50;;;;;;5059212;28;20475;-61
2021/04/17 01:55:30;;;;;;;14.50;3.17;;;28.60;19.20;;;;;;5065340;28;20069;-60
2021/04/17 01:57:58;;;;;;;22.60;3.60;;;28.40;16.80;;;;;;5065297;28;20069;-62
2021/04/17 02:00:25;;;;;;;18.08;3.13;;;28.30;17.90;;;;;;5064291;28;20587;-61
2021/04/17 02:02:52;;;;;;;32.95;4.00;;;28.20;18.10;;;;;;5066254;28;20172;-62
2021/04/17 02:05:19;;;;;;;17.92;3.28;;;28.00;17.90;;;;;;5065053;28;20476;-61
2021/04/17 02:07:45;;;;;;;19.23;3.42;;;27.90;17.20;;;;;;5062215;28;20101;-61
2021/04/17 02:10:12;;;;;;;18.58;3.38;;;27.80;16.70;;;;;;5064502;28;20588;-61
2021/04/17 02:12:39;;;;;;;22.50;3.42;;;27.70;17.90;;;;;;5064527;28;20077;-61
2021/04/17 02:15:06;;;;;;;18.10;3.03;;;27.60;19.90;;;;;;5067296;28;20073;-60
2021/04/17 02:18:01;;;;;;;21.48;3.70;;;27.50;20.30;;;;;;5066208;28;20539;-60
2021/04/17 02:20:37;;;;;;;20.85;4.18;;;27.30;19.30;;;;;;5062345;28;20089;-61
2021/04/17 02:23:05;;;;;;;21.42;3.50;;;27.30;20.40;;;;;;5065306;28;20092;-61
2021/04/17 02:25:31;;;;;;;28.33;3.72;;;27.10;21.40;;;;;;5060550;28;20093;-61
2021/04/17 02:27:58;;;;;;;30.98;4.00;;;27.00;20.90;;;;;;5056637;28;20103;-59
2021/04/17 02:30:25;;;;;;;19.85;4.70;;;26.80;22.00;;;;;;5058195;28;20147;-62
2021/04/17 02:32:51;;;;;;;27.00;4.13;;;26.70;20.00;;;;;;5066556;28;20080;-62
2021/04/17 02:35:18;;;;;;;38.08;4.50;;;26.70;20.90;;;;;;5065597;28;20069;-59
2021/04/17 02:37:45;;;;;;;34.45;4.50;;;26.60;20.20;;;;;;5065978;28;20109;-61
2021/04/17 02:40:11;;;;;;;57.72;6.50;;;26.60;20.50;;;;;;5065635;28;20096;-61
2021/04/17 02:42:38;;;;;;;40.22;5.85;;;26.50;21.00;;;;;;5069058;28;20085;-60
2021/04/17 02:45:05;;;;;;;39.60;7.00;;;26.40;19.70;;;;;;5068575;28;20077;-62
2021/04/17 02:47:31;;;;;;;30.65;6.57;;;26.30;19.80;;;;;;5066890;28;20097;-61
2021/04/17 02:49:58;;;;;;;36.85;6.80;;;26.20;20.00;;;;;;5068230;28;20143;-61
2021/04/17 02:52:24;;;;;;;37.67;6.95;;;26.10;21.00;;;;;;5067391;28;20069;-62
2021/04/17 02:54:51;;;;;;;35.05;6.32;;;26.00;20.90;;;;;;5071965;28;20096;-59
2021/04/17 02:57:18;;;;;;;27.35;4.97;;;25.90;20.70;;;;;;5067150;28;20085;-59
2021/04/17 02:59:44;;;;;;;45.38;5.35;;;25.90;22.00;;;;;;5063520;28;20077;-61
2021/04/17 03:02:11;;;;;;;34.70;5.35;;;25.90;22.00;;;;;;5067676;28;20084;-62
2021/04/17 03:04:37;;;;;;;41.85;5.82;;;25.90;22.70;;;;;;5065677;28;20065;-59
2021/04/17 03:07:04;;;;;;;28.55;5.50;;;25.80;22.90;;;;;;5072792;28;20127;-61
2021/04/17 03:09:30;;;;;;;28.40;5.53;;;25.80;23.20;;;;;;5068165;28;20141;-61
2021/04/17 03:11:57;;;;;;;39.13;6.65;;;25.70;23.10;;;;;;5067547;28;20204;-62
2021/04/17 03:14:23;;;;;;;33.90;6.80;;;25.60;23.30;;;;;;5068821;28;20077;-62
2021/04/17 03:16:50;;;;;;;41.65;6.30;;;25.60;22.20;;;;;;5073056;28;20461;-61
2021/04/17 03:19:17;;;;;;;33.95;6.20;;;25.50;23.10;;;;;;5069669;28;20407;-60
2021/04/17 03:21:43;;;;;;;36.90;8.27;;;25.50;22.60;;;;;;5071974;28;20065;-60
2021/04/17 03:24:10;;;;;;;39.03;7.60;;;25.40;23.90;;;;;;5069529;28;20123;-60
2021/04/17 03:26:36;;;;;;;32.83;6.18;;;25.30;23.90;;;;;;5068508;28;20073;-61
2021/04/17 03:29:03;;;;;;;28.30;5.85;;;25.30;24.80;;;;;;5071526;28;20243;-61
2021/04/17 03:31:29;;;;;;;42.83;9.15;;;25.20;25.40;;;;;;5066908;28;20088;-62
2021/04/17 03:33:56;;;;;;;37.85;8.25;;;25.10;25.20;;;;;;5068718;28;20468;-60
2021/04/17 03:36:22;;;;;;;37.65;7.35;;;25.00;24.60;;;;;;5067220;28;20104;-61
2021/04/17 03:38:49;;;;;;;28.60;6.68;;;24.90;24.80;;;;;;5068531;28;20567;-60
2021/04/17 03:41:16;;;;;;;36.55;7.40;;;24.80;25.20;;;;;;5067884;28;20567;-61
2021/04/17 03:43:42;;;;;;;29.65;6.28;;;24.80;23.10;;;;;;5065717;28;20106;-61
2021/04/17 03:46:09;;;;;;;27.00;6.22;;;24.80;22.00;;;;;;5069796;28;20160;-61
2021/04/17 03:48:35;;;;;;;24.08;5.60;;;24.90;22.10;;;;;;5065943;28;20097;-61
2021/04/17 03:51:02;;;;;;;28.95;5.25;;;25.00;21.40;;;;;;5070282;28;20164;-61
2021/04/17 03:53:28;;;;;;;24.73;5.07;;;25.10;20.60;;;;;;5070122;28;20072;-60
2021/04/17 03:55:55;;;;;;;20.77;5.10;;;25.20;20.70;;;;;;5069814;28;20088;-61
2021/04/17 03:58:21;;;;;;;22.55;4.28;;;25.10;20.90;;;;;;5065217;28;20157;-61
2021/04/17 04:00:48;;;;;;;21.13;3.92;;;25.10;21.40;;;;;;5067078;28;20069;-62
2021/04/17 04:03:14;;;;;;;17.73;4.00;;;25.20;21.00;;;;;;5066040;28;20097;-61
2021/04/17 04:05:41;;;;;;;18.05;4.57;;;25.10;20.70;;;;;;5071062;28;20224;-60
2021/04/17 04:08:07;;;;;;;19.15;4.57;;;25.10;20.90;;;;;;5067737;28;20466;-59
2021/04/17 04:10:34;;;;;;;15.45;4.75;;;25.10;20.80;;;;;;5067903;28;20151;-62
2021/04/17 04:13:00;;;;;;;15.48;4.40;;;25.10;20.50;;;;;;5067388;28;20075;-61
2021/04/17 04:15:27;;;;;;;22.02;5.55;;;25.10;20.50;;;;;;5070945;28;20065;-61
2021/04/17 04:17:53;;;;;;;16.13;4.70;;;25.10;21.00;;;;;;5068555;28;20077;-60
2021/04/17 04:20:20;;;;;;;15.02;3.90;;;25.00;20.20;;;;;;5068315;28;20085;-60
2021/04/17 04:22:46;;;;;;;15.18;3.95;;;25.10;20.00;;;;;;5072049;28;20574;-59
2021/04/17 04:25:13;;;;;;;19.70;4.80;;;25.10;20.30;;;;;;5072966;28;20079;-60
2021/04/17 04:27:40;;;;;;;24.35;4.57;;;25.10;19.80;;;;;;5070778;28;20081;-63
2021/04/17 04:30:09;;;;;;;21.75;3.70;;;25.10;19.80;;;;;;5069677;28;20077;-61
2021/04/17 04:32:36;;;;;;;23.52;4.10;;;25.10;19.40;;;;;;5069278;28;20114;-61
2021/04/17 04:35:04;;;;;;;12.43;4.00;;;25.10;19.70;;;;;;5070904;28;20104;-62
2021/04/17 04:37:30;;;;;;;13.85;3.35;;;25.00;19.90;;;;;;5065896;28;20641;-61
2021/04/17 04:39:57;;;;;;;18.60;3.63;;;25.00;20.40;;;;;;5067225;28;20088;-62
2021/04/17 04:42:24;;;;;;;14.25;3.75;;;24.90;20.30;;;;;;5062387;28;20116;-62
2021/04/17 04:44:52;;;;;;;14.63;3.53;;;24.90;20.90;;;;;;5060464;28;20107;-59
2021/04/17 04:47:18;;;;;;;20.27;4.10;;;24.80;20.80;;;;;;5070633;28;20080;-65
2021/04/17 04:49:45;;;;;;;18.33;3.95;;;24.80;21.30;;;;;;5065751;28;20180;-63
2021/04/17 04:52:11;;;;;;;18.77;3.60;;;24.70;21.10;;;;;;5066097;28;20069;-60
2021/04/17 04:54:38;;;;;;;20.42;4.13;;;24.60;21.40;;;;;;5061972;28;20081;-58
2021/04/17 04:57:05;;;;;;;15.88;4.05;;;24.50;21.30;;;;;;5068763;28;20437;-61
2021/04/17 04:59:31;;;;;;;23.40;4.07;;;24.50;21.50;;;;;;5102027;27;20137;-61
2021/04/17 05:01:58;;;;;;;16.35;4.10;;;24.40;21.50;;;;;;5066349;28;20684;-60
2021/04/17 05:04:24;;;;;;;20.05;5.03;;;24.50;21.70;;;;;;5063056;28;20152;-61
2021/04/17 05:06:51;;;;;;;16.98;4.80;;;24.30;21.90;;;;;;5063630;28;20080;-62
2021/04/17 05:09:17;;;;;;;27.13;5.00;;;24.30;22.10;;;;;;5065091;28;20565;-59
2021/04/17 05:11:43;;;;;;;22.80;4.85;;;24.30;22.20;;;;;;5062845;28;20135;-62
2021/04/17 05:14:10;;;;;;;18.63;3.88;;;24.20;22.40;;;;;;5064583;28;20085;-59
2021/04/17 05:16:37;;;;;;;18.45;4.10;;;24.10;22.50;;;;;;5067787;28;20521;-62
2021/04/17 05:19:03;;;;;;;16.90;4.32;;;24.00;22.80;;;;;;5064799;28;20073;-63
2021/04/17 05:21:30;;;;;;;18.63;3.65;;;24.00;22.60;;;;;;5068796;28;20087;-60
2021/04/17 05:23:56;;;;;;;17.17;3.33;;;23.90;23.10;;;;;;5070653;28;20160;-61
2021/04/17 05:26:23;;;;;;;20.30;3.72;;;23.80;23.00;;;;;;5067143;28;20081;-57
2021/04/17 05:28:50;;;;;;;20.13;3.75;;;23.70;23.10;;;;;;5071274;28;20108;-63
2021/04/17 05:31:16;;;;;;;24.67;4.82;;;23.60;23.10;;;;;;5064831;28;20073;-61
2021/04/17 05:33:43;;;;;;;25.67;5.30;;;23.50;23.30;;;;;;5066900;28;20101;-61
2021/04/17 05:36:09;;;;;;;20.35;6.00;;;23.50;23.60;;;;;;5062714;28;20069;-64
2021/04/17 05:38:36;;;;;;;25.65;5.38;;;23.40;23.70;;;;;;5067814;28;20538;-60
2021/04/17 05:41:03;;;;;;;18.73;4.18;;;23.40;23.40;;;;;;5068545;28;20069;-62
2021/04/17 05:43:30;;;;;;;20.55;4.65;;;23.30;23.80;;;;;;5068899;28;20081;-61
2021/04/17 05:45:57;;;;;;;16.98;4.50;;;23.30;23.70;;;;;;5064389;28;20111;-63
2021/04/17 05:48:23;;;;;;;20.25;5.60;;;23.20;24.00;;;;;;5066713;28;20454;-61
2021/04/17 05:50:50;;;;;;;24.85;6.88;;;23.20;23.60;;;;;;5060403;28;20140;-60
2021/04/17 05:53:16;;;;;;;16.98;4.35;;;23.20;24.10;;;;;;5064735;28;20131;-62
2021/04/17 05:55:43;;;;;;;23.00;4.20;;;23.20;23.50;;;;;;5068194;28;20073;-62
2021/04/17 05:58:10;;;;;;;26.75;4.20;;;23.20;23.40;;;;;;5067395;28;20184;-62
2021/04/17 06:00:36;;;;;;;24.60;4.03;;;23.20;23.30;;;;;;5067250;28;20108;-60
2021/04/17 06:03:05;;;;;;;19.58;4.03;;;23.10;23.20;;;;;;5064211;28;20094;-63
2021/04/17 06:05:31;;;;;;;22.30;4.32;;;23.10;23.50;;;;;;5068892;28;20105;-64
2021/04/17 06:07:58;;;;;;;24.33;4.10;;;23.10;23.10;;;;;;5067284;28;20461;-62
2021/04/17 06:10:24;;;;;;;16.73;3.80;;;23.00;23.30;;;;;;5071243;28;20076;-60
2021/04/17 06:12:51;;;;;;;25.40;4.05;;;23.00;23.00;;;;;;5068427;28;20077;-63
2021/04/17 06:15:17;;;;;;;18.92;4.22;;;23.00;23.40;;;;;;5067168;28;20081;-59
2021/04/17 06:17:44;;;;;;;11.73;3.63;;;23.00;23.30;;;;;;5074196;28;20104;-62
2021/04/17 06:20:12;;;;;;;21.38;4.55;;;22.90;23.00;;;;;;5068342;28;20425;-62
2021/04/17 06:22:38;;;;;;;16.25;4.80;;;22.90;22.90;;;;;;5073493;28;20084;-62
2021/04/17 06:25:09;;;;;;;14.07;3.80;;;22.80;23.50;;;;;;5073301;28;20433;-63
2021/04/17 06:27:36;;;;;;;20.48;4.40;;;22.80;23.20;;;;;;5074963;28;20568;-61
2021/04/17 06:30:05;;;;;;;21.73;5.68;;;22.80;23.80;;;;;;5072979;28;20538;-61
2021/04/17 06:32:31;;;;;;;23.02;6.00;;;22.70;23.40;;;;;;5068972;28;20077;-61
2021/04/17 06:34:58;;;;;;;25.50;5.15;;;22.70;23.50;;;;;;5072132;28;20564;-63
2021/04/17 06:37:24;;;;;;;22.13;5.85;;;22.60;23.20;;;;;;5069867;28;20121;-62
2021/04/17 06:39:51;;;;;;;23.58;6.60;;;22.60;23.70;;;;;;5070862;28;20080;-61
2021/04/17 06:42:21;;;;;;;21.60;5.72;;;22.50;24.20;;;;;;5071149;28;20196;-59
2021/04/17 06:44:49;;;;;;;21.25;5.53;;;22.50;24.30;;;;;;5068626;28;20096;-61
2021/04/17 06:47:17;;;;;;;19.80;4.72;;;22.50;24.80;;;;;;5070838;28;20129;-61
2021/04/17 06:49:46;;;;;;;20.17;4.90;;;22.50;24.30;;;;;;5070921;28;20084;-62
2021/04/17 06:52:14;;;;;;;22.92;5.05;;;22.40;24.30;;;;;;5070025;28;20070;-61
2021/04/17 06:54:44;;;;;;;31.23;5.47;;;22.40;23.80;;;;;;5070425;28;20097;-60
2021/04/17 06:57:12;;;;;;;27.60;4.90;;;22.30;23.80;;;;;;5065394;28;20073;-61
2021/04/17 06:59:41;;;;;;;19.15;4.07;;;22.30;23.40;;;;;;5072838;28;20081;-64
2021/04/17 07:02:15;;;;;;;20.27;4.47;;;22.30;23.60;;;;;;5070181;28;20069;-61
2021/04/17 07:04:43;;;;;;;15.00;3.30;;;22.20;23.30;;;;;;5067982;28;20105;-63
2021/04/17 07:07:10;;;;;;;21.17;3.72;;;22.20;23.00;;;;;;5071695;28;20104;-62
2021/04/17 07:09:37;;;;;;;11.90;2.72;;;22.20;22.70;;;;;;5073117;28;20537;-59
2021/04/17 07:12:06;;;;;;;17.33;2.45;;;22.10;22.40;;;;;;5069454;28;20069;-61
2021/04/17 07:14:49;;;;;;;14.25;2.70;;;22.10;22.00;;;;;;5071882;28;20075;-59
2021/04/17 07:17:16;;;;;;;10.15;2.33;;;22.10;21.90;;;;;;5066789;28;20078;-59
2021/04/17 07:20:16;;;;;;;10.50;2.58;;;22.00;21.80;;;;;;5070271;28;20514;-63
2021/04/17 07:22:44;;;;;;;12.00;2.42;;;22.00;21.30;;;;;;5068549;28;20081;-63
2021/04/17 07:25:10;;;;;;;12.60;2.42;;;22.00;21.00;;;;;;5064864;28;20559;-62
2021/04/17 07:27:37;;;;;;;;;;;21.90;20.40;;;;;;5069081;28;20085;-61
2021/04/17 07:30:28;;;;;;;9.52;2.03;;;21.90;19.90;;;;;;5069818;28;19957;-61
2021/04/17 07:33:19;;;;;;;8.73;2.03;;;21.90;19.70;;;;;;5067533;28;20073;-62
2021/04/17 07:35:52;;;;;;;5.93;2.17;;;21.80;19.60;;;;;;5066161;28;20472;-61
2021/04/17 07:38:21;;;;;;;9.57;1.73;;;21.80;19.50;;;;;;5066464;28;20113;-60
2021/04/17 07:41:04;;;;;;;10.88;2.33;;;21.80;20.00;;;;;;5068297;28;20130;-60
2021/04/17 07:43:54;;;;;;;13.07;2.10;;;21.80;19.00;;;;;;5070891;28;20073;-62
2021/04/17 07:46:24;;;;;;;4.80;1.40;;;21.80;19.10;;;;;;5069076;28;20081;-63
2021/04/17 07:48:52;;;;;;;7.22;1.90;;;21.80;19.40;;;;;;5070407;28;20150;-60
2021/04/17 07:51:19;;;;;;;8.27;1.73;;;21.70;19.50;;;;;;5070595;28;20077;-61
2021/04/17 07:53:46;;;;;;;9.80;2.05;;;21.60;19.70;;;;;;5068412;28;20081;-62
2021/04/17 07:56:36;;;;;;;8.02;1.77;;;21.60;20.30;;;;;;5066738;28;20070;-59
2021/04/17 07:59:06;;;;;;;8.55;2.00;;;21.60;20.00;;;;;;5068550;28;20100;-62
2021/04/17 08:01:34;;;;;;;8.05;1.83;;;21.50;20.10;;;;;;5070661;28;20548;-62
2021/04/17 08:04:03;;;;;;;10.63;1.80;;;21.40;20.20;;;;;;5068139;28;20085;-61
2021/04/17 08:06:30;;;;;;;7.38;2.50;;;21.40;20.40;;;;;;5065784;28;20217;-59
2021/04/17 08:08:59;;;;;;;6.47;1.98;;;21.40;19.90;;;;;;5067999;28;20097;-60
2021/04/17 08:11:29;;;;;;;8.77;1.38;;;21.30;19.70;;;;;;5072855;28;20076;-63
2021/04/17 08:13:57;;;;;;;7.30;1.50;;;21.30;19.60;;;;;;5070292;28;20081;-62
2021/04/17 08:16:24;;;;;;;10.02;1.92;;;21.30;19.00;;;;;;5063490;28;20078;-61
2021/04/17 08:18:51;;;;;;;8.95;1.42;;;21.30;18.20;;;;;;5066714;28;20077;-61
2021/04/17 08:21:20;;;;;;;7.50;1.80;;;21.30;18.40;;;;;;5066499;28;20161;-63
2021/04/17 08:23:50;;;;;;;6.57;1.52;;;21.30;17.10;;;;;;5070387;28;20073;-62
2021/04/17 08:26:17;;;;;;;6.00;1.45;;;21.40;16.70;;;;;;5065567;28;20460;-64
2021/04/17 08:28:47;;;;;;;12.65;1.85;;;21.30;16.60;;;;;;5068624;28;20124;-63
2021/04/17 08:31:33;;;;;;;8.82;2.55;;;21.40;17.00;;;;;;5070844;28;20429;-61
2021/04/17 08:34:17;;;;;;;12.25;2.72;;;21.40;16.40;;;;;;5070496;28;20072;-59
2021/04/17 08:36:50;;;;;;;10.93;2.35;;;21.40;16.30;;;;;;5067418;28;20133;-61
2021/04/17 08:39:35;;;;;;;8.05;2.08;;;21.40;16.20;;;;;;5068108;28;20456;-60
2021/04/17 08:42:31;;;;;;;8.65;1.58;;;21.40;16.50;;;;;;5066374;28;20437;-62
2021/04/17 08:45:11;;;;;;;11.63;1.83;;;21.40;17.10;;;;;;5037045;28;20095;-62
2021/04/17 08:47:54;;;;;;;9.10;1.85;;;21.40;16.60;;;;;;5063318;28;20096;-62
2021/04/17 08:50:35;;;;;;;5.35;1.27;;;21.40;16.40;;;;;;5068448;28;20088;-63
2021/04/17 08:53:17;;;;;;;6.88;1.60;;;21.30;16.90;;;;;;5066757;28;20073;-61
2021/04/17 08:55:49;;;;;;;6.65;1.15;;;21.30;17.20;;;;;;5064453;28;20077;-63
2021/04/17 08:58:24;;;;;;;9.00;2.00;;;21.30;17.10;;;;;;5070079;28;20077;-64
2021/04/17 09:00:53;;;;;;;10.68;1.67;;;21.20;17.40;;;;;;5065873;28;20155;-61
2021/04/17 09:04:06;;;;;;;9.75;1.60;;;21.20;17.50;;;;;;5067045;28;20078;-63
2021/04/17 09:06:33;;;;;;;9.07;1.58;;;21.10;17.80;;;;;;5029438;28;20574;-59
2021/04/17 09:09:20;;;;;;;;;;;21.10;17.60;;;;;;5064313;28;20115;-62
2021/04/17 09:11:55;;;;;;;6.50;1.42;;;21.00;18.10;;;;;;5068830;28;20317;-62
2021/04/17 09:14:32;;;;;;;4.57;1.52;;;20.90;18.50;;;;;;5067918;28;20130;-61
2021/04/17 09:17:07;;;;;;;9.18;1.52;;;20.90;18.70;;;;;;5070952;28;20160;-61
2021/04/17 09:19:44;;;;;;;8.40;1.70;;;20.90;18.40;;;;;;5064272;28;20571;-61
2021/04/17 09:22:32;;;;;;;13.25;2.00;;;20.80;17.70;;;;;;5064976;28;20199;-60
2021/04/17 09:25:00;;;;;;;8.80;1.83;;;20.80;17.50;;;;;;5067904;28;20080;-61
2021/04/17 09:27:38;;;;;;;5.70;1.55;;;20.80;18.10;;;;;;5060026;28;20076;-60
2021/04/17 09:30:14;;;;;;;8.82;1.83;;;20.70;17.80;;;;;;5064467;28;20072;-62
2021/04/17 09:32:45;;;;;;;5.97;1.50;;;20.80;18.50;;;;;;5070894;28;20073;-61
2021/04/17 09:35:13;;;;;;;4.28;1.25;;;20.70;18.00;;;;;;5067274;28;20477;-60
2021/04/17 09:37:40;;;;;;;3.25;1.25;;;20.70;18.50;;;;;;5066274;28;20581;-62
2021/04/17 09:40:07;;;;;;;12.15;1.30;;;20.60;17.90;;;;;;5067373;28;20112;-59
2021/04/17 09:42:37;;;;;;;6.97;1.55;;;20.50;18.10;;;;;;5065559;28;20073;-60
2021/04/17 09:45:11;;;;;;;9.23;1.48;;;20.50;18.00;;;;;;5063160;28;20077;-60
2021/04/17 09:48:00;;;;;;;12.25;1.50;;;20.50;18.20;;;;;;5070385;28;20088;-60
2021/04/17 09:50:30;;;;;;;7.30;1.83;;;20.50;18.20;;;;;;5064329;28;20084;-59
2021/04/17 09:53:20;;;;;;;8.05;1.30;;;20.50;18.60;;;;;;5065790;28;20080;-57
2021/04/17 09:55:49;;;;;;;6.72;1.67;;;20.40;19.40;;;;;;5062863;28;20078;-60
2021/04/17 09:58:26;;;;;;;7.70;1.42;;;20.40;19.80;;;;;;5063784;28;20179;-62
2021/04/17 10:00:53;;;;;;;4.18;1.20;;;20.30;19.50;;;;;;5067042;28;20072;-59
2021/04/17 10:03:30;;;;;;;12.23;1.50;;;20.30;19.30;;;;;;5064804;28;20120;-58
2021/04/17 10:05:59;;;;;;;8.77;1.60;;;20.30;20.40;;;;;;5064580;28;20080;-58
2021/04/17 10:08:34;;;;;;;7.90;1.50;;;20.30;20.90;;;;;;5067077;28;20093;-60
2021/04/17 10:11:03;;;;;;;8.10;1.42;;;20.30;20.10;;;;;;5064503;28;20154;-58
2021/04/17 10:13:40;;;;;;;8.30;1.70;;;20.30;20.30;;;;;;5064866;28;20073;-59
2021/04/17 10:16:08;;;;;;;8.63;2.20;;;20.30;20.10;;;;;;5066451;28;20414;-60
2021/04/17 10:18:36;;;;;;;8.25;1.95;;;20.20;19.90;;;;;;5067418;28;20100;-61
2021/04/17 10:21:03;;;;;;;8.93;1.83;;;20.10;20.10;;;;;;5067170;28;20517;-60
2021/04/17 10:23:30;;;;;;;7.85;1.52;;;20.10;20.30;;;;;;5061930;28;20488;-61
2021/04/17 10:26:10;;;;;;;7.25;1.67;;;20.10;20.20;;;;;;5066227;28;20084;-60
2021/04/17 10:28:37;;;;;;;8.68;1.70;;;20.00;19.80;;;;;;5065316;28;20093;-60
2021/04/17 10:31:20;;;;;;;18.25;2.45;;;20.00;19.80;;;;;;5068145;28;20456;-62
2021/04/17 10:33:48;;;;;;;8.20;1.95;;;20.00;20.30;;;;;;5067697;28;20069;-61
2021/04/17 10:36:22;;;;;;;7.30;1.90;;;20.00;20.00;;;;;;5066895;28;20498;-61
2021/04/17 10:38:50;;;;;;;9.32;2.28;;;20.00;20.40;;;;;;5065653;28;20085;-61
2021/04/17 10:41:28;;;;;;;7.45;1.88;;;20.00;21.00;;;;;;5065861;28;20100;-61
2021/04/17 10:44:14;;;;;;;6.10;1.40;;;20.00;20.80;;;;;;5067020;28;20073;-61
2021/04/17 10:46:45;;;;;;;8.05;1.30;;;20.00;20.00;;;;;;5064809;28;20081;-62
2021/04/17 10:49:29;;;;;;;7.32;1.42;;;19.90;20.00;;;;;;5065016;28;20109;-60
2021/04/17 10:51:56;;;;;;;12.52;1.77;;;19.80;19.90;;;;;;5068043;28;20071;-60
2021/04/17 10:54:24;;;;;;;8.48;1.70;;;19.80;20.00;;;;;;5066457;28;20073;-60
2021/04/17 10:57:06;;;;;;;6.90;1.80;;;19.80;19.90;;;;;;5067407;28;20521;-62
2021/04/17 10:59:56;;;;;;;9.63;1.70;;;19.80;20.00;;;;;;5066537;28;20084;-62
2021/04/17 11:02:34;;;;;;;4.78;1.80;;;19.80;19.80;;;;;;5066099;28;20081;-61
2021/04/17 11:05:03;;;;;;;10.02;1.77;;;19.90;20.00;;;;;;5070060;28;20072;-60
2021/04/17 11:07:39;;;;;;;5.70;1.73;;;19.80;20.00;;;;;;5069394;28;20069;-58
2021/04/17 11:10:09;;;;;;;5.57;1.60;;;19.90;20.00;;;;;;5070422;28;20125;-58
2021/04/17 11:12:39;;;;;;;5.90;1.30;;;19.90;19.90;;;;;;5066048;28;20191;-59
2021/04/17 11:15:23;;;;;;;8.60;1.50;;;19.80;19.70;;;;;;5069216;28;20483;-60
2021/04/17 11:18:12;;;;;;;6.95;1.50;;;19.80;19.80;;;;;;5066699;28;20061;-59
2021/04/17 11:20:59;;;;;;;8.18;1.48;;;19.80;19.80;;;;;;5068289;28;20117;-61
2021/04/17 11:23:49;;;;;;;8.55;1.73;;;19.80;19.90;;;;;;5064843;28;20437;-57
2021/04/17 11:26:28;;;;;;;4.07;1.20;;;19.80;20.00;;;;;;5072165;28;20081;-61
2021/04/17 11:28:59;;;;;;;10.35;1.20;;;19.80;20.20;;;;;;5067472;28;20089;-62
2021/04/17 11:31:29;;;;;;;5.07;1.63;;;19.80;20.60;;;;;;5069876;28;20152;-61
2021/04/17 11:34:00;;;;;;;11.90;2.42;;;19.80;21.50;;;;;;5067351;28;20089;-60
2021/04/17 11:36:29;;;;;;;9.20;1.90;;;19.70;23.00;;;;;;5067300;28;20509;-57
2021/04/17 11:38:57;;;;;;;9.40;1.88;;;19.60;23.80;;;;;;5068991;28;20462;-58
2021/04/17 11:41:25;;;;;;;9.02;2.22;;;19.50;24.60;;;;;;5066825;28;20073;-60
2021/04/17 11:43:51;;;;;;;8.95;1.75;;;19.50;25.10;;;;;;5066342;28;20473;-59
2021/04/17 11:46:19;;;;;;;8.13;1.70;;;19.50;25.30;;;;;;5070668;28;20073;-59
2021/04/17 11:48:50;;;;;;;9.90;1.63;;;19.50;25.50;;;;;;5068302;28;20150;-60
2021/04/17 11:51:20;;;;;;;6.75;1.67;;;19.50;25.50;;;;;;5068201;28;20077;-58
2021/04/17 11:53:47;;;;;;;13.60;2.10;;;19.40;25.50;;;;;;5067372;28;20198;-61
2021/04/17 11:56:15;;;;;;;11.32;2.35;;;19.40;25.60;;;;;;5068379;28;20093;-60
2021/04/17 11:58:42;;;;;;;7.63;1.67;;;19.30;25.50;;;;;;5069739;28;20167;-61
2021/04/17 12:01:09;;;;;;;8.70;1.70;;;19.30;25.20;;;;;;5067546;28;20069;-59
2021/04/17 12:03:36;;;;;;;9.18;1.90;;;19.30;25.10;;;;;;5068842;28;20073;-61
2021/04/17 12:06:03;;;;;;;13.20;1.75;;;19.30;25.10;;;;;;5071007;28;20069;-61
2021/04/17 12:08:30;;;;;;;10.77;1.85;;;19.30;25.00;;;;;;5070080;28;20452;-62
2021/04/17 12:10:57;;;;;;;9.68;1.88;;;19.30;25.20;;;;;;5069723;28;20069;-62
2021/04/17 12:13:23;;;;;;;8.45;1.85;;;19.30;25.30;;;;;;5069920;28;20130;-62
2021/04/17 12:15:51;;;;;;;;;;;19.30;25.10;;;;;;5068316;28;20065;-62
2021/04/17 12:18:17;;;;;;;;;;;19.30;24.90;;;;;;5071295;28;19957;-59
2021/04/17 12:20:44;;;;;;;9.10;1.80;;;19.30;24.80;;;;;;5066871;28;20406;-60
2021/04/17 12:23:12;;;;;;;10.50;1.90;;;19.30;24.60;;;;;;5070831;28;20109;-58
2021/04/17 12:25:40;;;;;;;15.18;2.75;;;19.30;24.40;;;;;;5066170;28;20414;-61
2021/04/17 12:28:06;;;;;;;11.25;2.13;;;19.30;24.30;;;;;;5063852;28;20093;-61
2021/04/17 12:30:33;;;;;;;8.30;1.92;;;19.30;24.20;;;;;;5070187;28;20088;-61
2021/04/17 12:32:59;;;;;;;10.60;2.08;;;19.30;24.50;;;;;;5071934;28;20073;-60
2021/04/17 12:35:26;;;;;;;;;;;19.30;24.20;;;;;;5067315;28;20070;-61
2021/04/17 12:37:52;;;;;;;6.47;2.05;;;19.30;24.20;;;;;;5069347;28;20053;-62
2021/04/17 12:40:18;;;;;;;;;;;19.30;24.50;;;;;;5067898;28;20084;-61
2021/04/17 12:42:45;;;;;;;10.85;2.25;;;19.30;24.30;;;;;;5066918;28;20011;-57
2021/04/17 12:45:13;;;;;;;9.35;2.13;;;19.30;24.20;;;;;;5070056;28;20096;-60
2021/04/17 12:47:40;;;;;;;8.43;1.83;;;19.20;24.10;;;;;;5070096;28;20075;-60
2021/04/17 12:50:09;;;;;;;9.38;2.00;;;19.20;24.30;;;;;;5067949;28;20085;-61
2021/04/17 12:52:36;;;;;;;8.15;1.88;;;19.20;24.00;;;;;;5066918;28;20070;-60
2021/04/17 12:55:04;;;;;;;6.45;1.77;;;19.20;24.10;;;;;;5070125;28;20525;-62